createdAt,value
2022-12-15T00:05:12.523Z,80.95
2022-12-15T00:10:32.940Z,80.64
2022-12-15T00:15:52.968Z,80.39
2022-12-15T00:21:16.593Z,80.00
2022-12-15T00:26:37.199Z,80.56
2022-12-15T00:31:58.156Z,80.28
2022-12-15T00:37:18.442Z,81.05
2022-12-15T00:42:20.045Z,80.66
2022-12-15T00:47:21.686Z,80.74
2022-12-15T00:52:41.902Z,81.46
2022-12-15T00:58:02.698Z,81.25
2022-12-15T01:03:42.999Z,81.01
2022-12-15T01:09:03.649Z,81.60
2022-12-15T01:14:23.582Z,81.58
2022-12-15T01:19:43.733Z,81.05
2022-12-15T01:24:45.290Z,80.81
2022-12-15T01:29:46.914Z,79.93
2022-12-15T01:34:49.748Z,80.21
2022-12-15T01:40:09.714Z,81.65
2022-12-15T01:45:29.374Z,80.85
2022-12-15T01:50:33.553Z,80.31
2022-12-15T01:55:35.219Z,80.06
2022-12-15T02:00:36.947Z,80.16
2022-12-15T02:05:39.308Z,80.33
2022-12-15T02:11:16.184Z,80.45
2022-12-15T02:16:37.994Z,80.55
2022-12-15T02:21:43.818Z,80.79
2022-12-15T02:26:51.292Z,80.93
2022-12-15T02:31:59.361Z,80.84
2022-12-15T02:37:11.780Z,81.43
2022-12-15T02:42:13.411Z,81.08
2022-12-15T02:47:32.784Z,80.78
2022-12-15T02:52:59.456Z,81.04
2022-12-15T02:58:05.762Z,79.74
2022-12-15T03:03:07.895Z,80.47
2022-12-15T03:08:09.567Z,80.27
2022-12-15T03:13:11.127Z,80.25
2022-12-15T03:18:12.705Z,80.72
2022-12-15T03:23:14.308Z,79.73
2022-12-15T03:28:15.902Z,79.20
2022-12-15T03:33:17.554Z,79.16
2022-12-15T03:38:19.175Z,78.57
2022-12-15T03:43:20.723Z,78.68
2022-12-15T03:48:22.337Z,78.82
2022-12-15T03:53:23.937Z,78.92
2022-12-15T03:58:25.495Z,79.02
2022-12-15T04:03:27.134Z,78.72
2022-12-15T04:08:28.724Z,78.92
2022-12-15T04:13:30.540Z,79.08
2022-12-15T04:18:32.449Z,79.73
2022-12-15T04:23:34.305Z,80.03
2022-12-15T04:28:54.490Z,80.75
2022-12-15T04:34:18.714Z,80.86
2022-12-15T04:39:38.820Z,80.59
2022-12-15T04:44:59.118Z,80.37
2022-12-15T04:50:19.212Z,81.27
2022-12-15T04:55:39.414Z,81.18
2022-12-15T05:00:59.650Z,82.23
2022-12-15T05:06:20.023Z,81.61
2022-12-15T05:11:40.340Z,82.19
2022-12-15T05:17:00.383Z,82.02
2022-12-15T05:22:20.379Z,81.30
2022-12-15T05:27:40.501Z,81.51
2022-12-15T05:32:43.221Z,81.26
2022-12-15T05:37:44.791Z,81.08
2022-12-15T05:42:50.110Z,80.64
2022-12-15T05:47:52.658Z,80.73
2022-12-15T05:52:55.612Z,81.22
2022-12-15T05:57:57.287Z,79.57
2022-12-15T06:02:59.121Z,79.18
2022-12-15T06:08:00.969Z,78.79
2022-12-15T06:13:02.540Z,78.23
2022-12-15T06:18:04.189Z,78.36
2022-12-15T06:23:05.768Z,78.13
2022-12-15T06:28:07.304Z,79.12
2022-12-15T06:33:08.873Z,78.34
2022-12-15T06:38:10.498Z,78.55
2022-12-15T06:43:12.132Z,78.78
2022-12-15T06:48:13.740Z,79.10
2022-12-15T06:53:19.635Z,78.39
2022-12-15T06:58:21.311Z,79.12
2022-12-15T07:03:23.119Z,78.71
2022-12-15T07:08:30.792Z,79.39
2022-12-15T07:13:34.591Z,78.79
2022-12-15T07:18:36.380Z,78.63
2022-12-15T07:23:55.728Z,78.49
2022-12-15T07:28:58.137Z,78.93
2022-12-15T07:33:59.758Z,78.55
2022-12-15T07:39:04.797Z,78.07
2022-12-15T07:44:06.415Z,77.98
2022-12-15T07:49:09.332Z,77.65
2022-12-15T07:54:12.112Z,77.16
2022-12-15T07:59:13.666Z,76.92
2022-12-15T08:04:15.753Z,76.70
2022-12-15T08:09:17.340Z,75.55
2022-12-15T08:14:19.388Z,76.79
2022-12-15T08:19:21.294Z,76.92
2022-12-15T08:24:22.869Z,74.04
2022-12-15T08:29:50.027Z,73.71
2022-12-15T08:34:47.715Z,73.22
2022-12-15T08:39:49.320Z,73.68
2022-12-15T08:44:51.456Z,73.70
2022-12-15T08:49:54.534Z,74.86
2022-12-15T08:54:56.102Z,75.66
2022-12-15T08:59:57.695Z,75.66
2022-12-15T09:04:59.244Z,75.51
2022-12-15T09:10:00.861Z,75.16
2022-12-15T09:15:02.441Z,74.94
2022-12-15T09:20:04.432Z,74.93
2022-12-15T09:25:06.366Z,75.06
2022-12-15T09:30:09.165Z,74.15
2022-12-15T09:35:10.733Z,74.54
2022-12-15T09:40:13.122Z,74.37
2022-12-15T09:45:19.815Z,74.35
2022-12-15T09:50:26.428Z,73.90
2022-12-15T09:55:35.170Z,73.38
2022-12-15T10:00:57.002Z,73.67
2022-12-15T10:06:17.750Z,73.64
2022-12-15T10:11:42.769Z,73.87
2022-12-15T10:17:14.235Z,73.98
2022-12-15T10:22:36.773Z,74.70
2022-12-15T10:28:05.894Z,73.34
2022-12-15T10:33:28.419Z,73.19
2022-12-15T10:38:37.982Z,72.56
2022-12-15T10:43:41.951Z,73.18
2022-12-15T10:48:48.522Z,73.04
2022-12-15T10:54:06.609Z,73.19
2022-12-15T10:59:23.256Z,71.82
2022-12-15T11:04:29.973Z,71.82
2022-12-15T11:09:36.996Z,71.67
2022-12-15T11:14:43.946Z,71.86
2022-12-15T11:20:03.014Z,72.51
2022-12-15T11:25:25.241Z,72.40
2022-12-15T11:30:33.206Z,72.72
2022-12-15T11:35:54.276Z,72.91
2022-12-15T11:40:57.806Z,72.75
2022-12-15T11:46:01.904Z,73.29
2022-12-15T11:51:29.398Z,73.51
2022-12-15T11:56:50.552Z,73.31
2022-12-15T12:02:04.188Z,73.52
2022-12-15T12:07:43.915Z,72.54
2022-12-15T12:13:14.125Z,72.82
2022-12-15T12:18:21.724Z,73.91
2022-12-15T12:23:42.880Z,73.51
2022-12-15T12:28:57.029Z,72.45
2022-12-15T12:34:03.188Z,72.32
2022-12-15T12:39:04.885Z,72.33
2022-12-15T12:44:32.387Z,71.64
2022-12-15T12:49:40.935Z,72.12
2022-12-15T12:54:46.984Z,73.43
2022-12-15T12:59:59.168Z,72.58
2022-12-15T13:05:05.090Z,72.96
2022-12-15T13:10:09.831Z,73.43
2022-12-15T13:15:21.385Z,72.76
2022-12-15T13:20:25.924Z,72.56
2022-12-15T13:25:40.711Z,72.70
2022-12-15T13:31:16.717Z,72.78
2022-12-15T13:36:55.921Z,71.87
2022-12-15T13:47:27.645Z,71.47
2022-12-15T13:53:16.235Z,72.55
2022-12-15T13:58:00.031Z,73.06
2022-12-15T14:03:11.804Z,73.27
2022-12-15T14:08:14.984Z,72.98
2022-12-15T14:13:22.426Z,72.83
2022-12-15T14:18:31.321Z,73.24
2022-12-15T14:24:11.028Z,73.44
2022-12-15T14:29:06.470Z,73.53
2022-12-15T14:34:19.689Z,74.04
2022-12-15T14:39:23.525Z,74.40
2022-12-15T14:50:02.053Z,73.79
2022-12-15T14:55:23.546Z,74.55
2022-12-15T15:00:31.577Z,75.19
2022-12-15T15:05:33.329Z,75.36
2022-12-15T15:10:35.021Z,75.64
2022-12-15T15:15:36.628Z,76.22
2022-12-15T15:20:38.278Z,75.70
2022-12-15T15:25:42.551Z,76.00
2022-12-15T15:31:07.113Z,76.76
2022-12-15T15:36:10.243Z,76.75
2022-12-15T15:41:16.529Z,77.01
2022-12-15T15:46:21.033Z,76.84
2022-12-15T15:51:24.346Z,77.13
2022-12-15T15:56:27.494Z,77.50
2022-12-15T16:01:29.181Z,77.91
2022-12-15T16:06:30.890Z,78.69
2022-12-15T16:11:33.358Z,79.26
2022-12-15T16:16:35.154Z,79.50
2022-12-15T16:21:36.912Z,79.87
2022-12-15T16:26:39.290Z,79.50
2022-12-15T16:31:45.386Z,79.32
2022-12-15T16:36:47.457Z,79.41
2022-12-15T16:41:49.054Z,79.56
2022-12-15T16:46:51.370Z,79.95
2022-12-15T16:51:53.845Z,79.91
2022-12-15T16:56:56.923Z,80.36
2022-12-15T17:01:58.594Z,79.06
2022-12-15T17:07:00.407Z,79.02
2022-12-15T17:12:02.217Z,79.41
2022-12-15T17:17:12.959Z,79.39
2022-12-15T17:22:15.085Z,80.07
2022-12-15T17:27:27.984Z,79.86
2022-12-15T17:32:29.719Z,80.68
2022-12-15T17:37:35.227Z,80.57
2022-12-15T17:42:37.451Z,81.40
2022-12-15T17:47:39.135Z,81.10
2022-12-15T17:52:43.122Z,80.81
2022-12-15T17:57:45.091Z,81.29
2022-12-15T18:02:47.392Z,81.52
2022-12-15T18:08:01.759Z,80.06
2022-12-15T18:13:03.997Z,79.44
2022-12-15T18:18:05.728Z,79.74
2022-12-15T18:23:20.881Z,79.93
2022-12-15T18:28:28.132Z,79.64
2022-12-15T18:33:33.212Z,79.26
2022-12-15T18:38:35.056Z,78.59
2022-12-15T18:43:37.385Z,78.62
2022-12-15T18:48:40.156Z,77.96
2022-12-15T18:53:41.980Z,77.78
2022-12-15T18:58:43.869Z,78.69
2022-12-15T19:03:45.502Z,78.42
2022-12-15T19:08:47.196Z,78.43
2022-12-15T19:13:48.926Z,78.58
2022-12-15T19:19:12.536Z,78.45
2022-12-15T19:24:48.456Z,79.37
2022-12-15T19:29:50.545Z,79.00
2022-12-15T19:34:52.236Z,78.58
2022-12-15T19:39:55.343Z,79.47
2022-12-15T19:44:57.152Z,79.61
2022-12-15T19:49:58.760Z,79.87
2022-12-15T19:55:01.366Z,79.10
2022-12-15T20:00:13.780Z,79.54
2022-12-15T20:05:15.418Z,80.30
2022-12-15T20:10:29.454Z,79.69
2022-12-15T20:15:34.855Z,79.75
2022-12-15T20:20:37.478Z,79.56
2022-12-15T20:25:40.924Z,80.07
2022-12-15T20:30:44.197Z,79.89
2022-12-15T20:35:47.836Z,80.05
2022-12-15T20:40:50.495Z,80.31
2022-12-15T20:46:04.310Z,80.13
2022-12-15T20:51:09.887Z,80.54
2022-12-15T20:56:11.777Z,79.57
2022-12-15T21:01:33.220Z,80.05
2022-12-15T21:06:36.849Z,81.32
2022-12-15T21:11:38.680Z,80.58
2022-12-15T21:16:40.363Z,80.77
2022-12-15T21:21:51.859Z,80.23
2022-12-15T21:26:53.822Z,80.81
2022-12-15T21:31:56.897Z,80.70
2022-12-15T21:36:58.614Z,80.48
2022-12-15T21:42:04.070Z,79.64
2022-12-15T21:47:47.354Z,79.96
2022-12-15T21:52:49.108Z,80.50
2022-12-15T21:57:51.669Z,79.77
2022-12-15T22:02:54.096Z,79.67
2022-12-15T22:07:58.252Z,79.73
2022-12-15T22:13:00.082Z,80.82
2022-12-15T22:18:01.816Z,80.22
2022-12-15T22:23:03.448Z,80.17
2022-12-15T22:28:05.187Z,80.02
2022-12-15T22:33:21.575Z,80.25
2022-12-15T22:38:24.292Z,80.00
2022-12-15T22:43:40.243Z,81.23
2022-12-15T22:48:44.259Z,80.54
2022-12-15T22:53:46.049Z,81.80
2022-12-15T22:58:48.404Z,81.07
2022-12-15T23:03:51.511Z,81.34
2022-12-15T23:08:55.813Z,81.22
2022-12-15T23:13:57.831Z,81.32
2022-12-15T23:19:00.305Z,81.21
2022-12-15T23:24:01.962Z,81.19
2022-12-15T23:29:03.702Z,82.21
2022-12-15T23:34:05.528Z,82.70
2022-12-15T23:39:07.279Z,82.51
2022-12-15T23:44:12.233Z,82.26
2022-12-15T23:49:13.931Z,81.33
2022-12-15T23:54:15.667Z,80.59
2022-12-15T23:59:17.483Z,80.90
